sensor_id;sensor_type;location;lat;lon;timestamp;temperature;humidity
4366;DHT22;2196;47.422;9.656;2023-03-16T00:02:02;2.90;99.90
4366;DHT22;2196;47.422;9.656;2023-03-16T00:04:29;2.80;99.90
4366;DHT22;2196;47.422;9.656;2023-03-16T00:06:56;2.80;99.90
4366;DHT22;2196;47.422;9.656;2023-03-16T00:09:23;2.70;99.90
4366;DHT22;2196;47.422;9.656;2023-03-16T00:11:55;2.70;99.90
4366;DHT22;2196;47.422;9.656;2023-03-16T00:14:25;2.70;99.90
4366;DHT22;2196;47.422;9.656;2023-03-16T00:16:52;2.60;99.90
4366;DHT22;2196;47.422;9.656;2023-03-16T00:19:19;2.60;99.90
4366;DHT22;2196;47.422;9.656;2023-03-16T00:21:47;2.50;99.90
4366;DHT22;2196;47.422;9.656;2023-03-16T00:24:15;2.50;99.90
4366;DHT22;2196;47.422;9.656;2023-03-16T00:26:44;2.50;99.90
4366;DHT22;2196;47.422;9.656;2023-03-16T00:29:11;2.50;99.90
4366;DHT22;2196;47.422;9.656;2023-03-16T00:31:39;2.40;99.90
4366;DHT22;2196;47.422;9.656;2023-03-16T00:34:08;2.40;99.90
4366;DHT22;2196;47.422;9.656;2023-03-16T00:36:35;2.40;99.90
4366;DHT22;2196;47.422;9.656;2023-03-16T00:39:03;2.40;99.90
4366;DHT22;2196;47.422;9.656;2023-03-16T00:41:31;2.40;99.90
4366;DHT22;2196;47.422;9.656;2023-03-16T00:44:02;2.50;99.90
4366;DHT22;2196;47.422;9.656;2023-03-16T00:46:29;2.50;99.90
4366;DHT22;2196;47.422;9.656;2023-03-16T00:48:58;2.40;99.90
4366;DHT22;2196;47.422;9.656;2023-03-16T00:51:27;2.40;99.90
4366;DHT22;2196;47.422;9.656;2023-03-16T00:53:55;2.30;99.90
4366;DHT22;2196;47.422;9.656;2023-03-16T00:56:22;2.30;99.90
4366;DHT22;2196;47.422;9.656;2023-03-16T00:58:49;2.30;99.90
4366;DHT22;2196;47.422;9.656;2023-03-16T01:01:22;2.30;99.90
4366;DHT22;2196;47.422;9.656;2023-03-16T01:03:49;2.30;99.90
4366;DHT22;2196;47.422;9.656;2023-03-16T01:06:17;2.20;99.90
4366;DHT22;2196;47.422;9.656;2023-03-16T01:08:46;2.20;99.90
4366;DHT22;2196;47.422;9.656;2023-03-16T01:11:16;2.20;99.90
4366;DHT22;2196;47.422;9.656;2023-03-16T01:13:44;2.20;99.90
4366;DHT22;2196;47.422;9.656;2023-03-16T01:16:12;2.20;99.90
4366;DHT22;2196;47.422;9.656;2023-03-16T01:18:39;2.20;99.90
4366;DHT22;2196;47.422;9.656;2023-03-16T01:21:08;2.20;99.90
4366;DHT22;2196;47.422;9.656;2023-03-16T01:23:39;2.30;99.90
4366;DHT22;2196;47.422;9.656;2023-03-16T01:26:09;2.30;99.90
4366;DHT22;2196;47.422;9.656;2023-03-16T01:28:36;2.30;99.90
4366;DHT22;2196;47.422;9.656;2023-03-16T01:31:06;2.20;99.90
4366;DHT22;2196;47.422;9.656;2023-03-16T01:33:34;2.10;99.90
4366;DHT22;2196;47.422;9.656;2023-03-16T01:36:03;2.10;99.90
4366;DHT22;2196;47.422;9.656;2023-03-16T01:38:31;2.00;99.90
4366;DHT22;2196;47.422;9.656;2023-03-16T01:41:00;2.10;99.90
4366;DHT22;2196;47.422;9.656;2023-03-16T01:43:28;2.10;99.90
4366;DHT22;2196;47.422;9.656;2023-03-16T01:46:20;2.00;99.90
4366;DHT22;2196;47.422;9.656;2023-03-16T01:49:01;1.90;99.90
4366;DHT22;2196;47.422;9.656;2023-03-16T01:51:35;1.80;99.90
4366;DHT22;2196;47.422;9.656;2023-03-16T01:54:07;1.70;99.90
4366;DHT22;2196;47.422;9.656;2023-03-16T01:56:41;1.70;99.90
4366;DHT22;2196;47.422;9.656;2023-03-16T01:59:13;1.70;99.90
4366;DHT22;2196;47.422;9.656;2023-03-16T02:01:41;1.70;99.90
4366;DHT22;2196;47.422;9.656;2023-03-16T02:04:23;1.70;99.90
4366;DHT22;2196;47.422;9.656;2023-03-16T02:06:54;1.70;99.90
4366;DHT22;2196;47.422;9.656;2023-03-16T02:09:21;1.70;99.90
4366;DHT22;2196;47.422;9.656;2023-03-16T02:11:52;1.70;99.90
4366;DHT22;2196;47.422;9.656;2023-03-16T02:14:20;1.70;99.90
4366;DHT22;2196;47.422;9.656;2023-03-16T02:16:49;1.70;99.90
4366;DHT22;2196;47.422;9.656;2023-03-16T02:19:25;1.70;99.90
4366;DHT22;2196;47.422;9.656;2023-03-16T02:22:01;1.70;99.90
4366;DHT22;2196;47.422;9.656;2023-03-16T02:24:29;1.70;99.90
4366;DHT22;2196;47.422;9.656;2023-03-16T02:27:01;1.70;99.90
4366;DHT22;2196;47.422;9.656;2023-03-16T02:29:52;1.70;99.90
4366;DHT22;2196;47.422;9.656;2023-03-16T02:32:21;1.80;99.90
4366;DHT22;2196;47.422;9.656;2023-03-16T02:34:48;1.70;99.90
4366;DHT22;2196;47.422;9.656;2023-03-16T02:37:16;1.70;99.90
4366;DHT22;2196;47.422;9.656;2023-03-16T02:39:43;1.60;99.90
4366;DHT22;2196;47.422;9.656;2023-03-16T02:42:12;1.70;99.90
4366;DHT22;2196;47.422;9.656;2023-03-16T02:44:44;1.70;99.90
4366;DHT22;2196;47.422;9.656;2023-03-16T02:47:18;1.70;99.90
4366;DHT22;2196;47.422;9.656;2023-03-16T02:49:47;1.70;99.90
4366;DHT22;2196;47.422;9.656;2023-03-16T02:52:14;1.70;99.90
4366;DHT22;2196;47.422;9.656;2023-03-16T02:54:41;1.70;99.90
4366;DHT22;2196;47.422;9.656;2023-03-16T02:57:08;1.70;99.90
4366;DHT22;2196;47.422;9.656;2023-03-16T02:59:35;1.70;99.90
4366;DHT22;2196;47.422;9.656;2023-03-16T03:02:04;1.60;99.90
4366;DHT22;2196;47.422;9.656;2023-03-16T03:04:31;1.60;99.90
4366;DHT22;2196;47.422;9.656;2023-03-16T03:06:58;1.60;99.90
4366;DHT22;2196;47.422;9.656;2023-03-16T03:09:29;1.50;99.90
4366;DHT22;2196;47.422;9.656;2023-03-16T03:11:58;1.50;99.90
4366;DHT22;2196;47.422;9.656;2023-03-16T03:14:25;1.40;99.90
4366;DHT22;2196;47.422;9.656;2023-03-16T03:16:53;1.40;99.90
4366;DHT22;2196;47.422;9.656;2023-03-16T03:19:22;1.30;99.90
4366;DHT22;2196;47.422;9.656;2023-03-16T03:21:50;1.30;99.90
4366;DHT22;2196;47.422;9.656;2023-03-16T03:24:21;1.30;99.90
4366;DHT22;2196;47.422;9.656;2023-03-16T03:26:48;1.20;99.90
4366;DHT22;2196;47.422;9.656;2023-03-16T03:29:17;1.30;99.90
4366;DHT22;2196;47.422;9.656;2023-03-16T03:31:44;1.20;99.90
4366;DHT22;2196;47.422;9.656;2023-03-16T03:34:11;1.20;99.90
4366;DHT22;2196;47.422;9.656;2023-03-16T03:36:39;1.10;99.90
4366;DHT22;2196;47.422;9.656;2023-03-16T03:39:07;1.10;99.90
4366;DHT22;2196;47.422;9.656;2023-03-16T03:41:34;1.10;99.90
4366;DHT22;2196;47.422;9.656;2023-03-16T03:44:02;1.20;99.90
4366;DHT22;2196;47.422;9.656;2023-03-16T03:46:29;1.20;99.90
4366;DHT22;2196;47.422;9.656;2023-03-16T03:48:56;1.10;99.90
4366;DHT22;2196;47.422;9.656;2023-03-16T03:51:28;1.10;99.90
4366;DHT22;2196;47.422;9.656;2023-03-16T03:53:57;1.10;99.90
4366;DHT22;2196;47.422;9.656;2023-03-16T03:56:24;1.10;99.90
4366;DHT22;2196;47.422;9.656;2023-03-16T03:58:52;1.10;99.90
4366;DHT22;2196;47.422;9.656;2023-03-16T04:01:19;1.10;99.90
4366;DHT22;2196;47.422;9.656;2023-03-16T04:03:46;1.10;99.90
4366;DHT22;2196;47.422;9.656;2023-03-16T04:06:13;1.00;99.90
4366;DHT22;2196;47.422;9.656;2023-03-16T04:08:40;1.00;99.90
4366;DHT22;2196;47.422;9.656;2023-03-16T04:11:08;1.00;99.90
4366;DHT22;2196;47.422;9.656;2023-03-16T04:13:36;1.00;99.90
4366;DHT22;2196;47.422;9.656;2023-03-16T04:16:03;1.00;99.90
4366;DHT22;2196;47.422;9.656;2023-03-16T04:18:31;1.00;99.90
4366;DHT22;2196;47.422;9.656;2023-03-16T04:21:04;0.90;99.90
4366;DHT22;2196;47.422;9.656;2023-03-16T04:23:32;0.90;99.90
4366;DHT22;2196;47.422;9.656;2023-03-16T04:25:59;0.90;99.90
4366;DHT22;2196;47.422;9.656;2023-03-16T04:28:28;0.90;99.90
4366;DHT22;2196;47.422;9.656;2023-03-16T04:30:55;0.90;99.90
4366;DHT22;2196;47.422;9.656;2023-03-16T04:33:26;0.80;99.90
4366;DHT22;2196;47.422;9.656;2023-03-16T04:35:53;0.80;99.90
4366;DHT22;2196;47.422;9.656;2023-03-16T04:38:20;0.80;99.90
4366;DHT22;2196;47.422;9.656;2023-03-16T04:40:47;0.80;99.90
4366;DHT22;2196;47.422;9.656;2023-03-16T04:43:14;0.70;99.90
4366;DHT22;2196;47.422;9.656;2023-03-16T04:45:43;0.70;99.90
4366;DHT22;2196;47.422;9.656;2023-03-16T04:48:10;0.70;99.90
4366;DHT22;2196;47.422;9.656;2023-03-16T04:50:37;0.70;99.90
4366;DHT22;2196;47.422;9.656;2023-03-16T04:53:04;0.70;99.90
4366;DHT22;2196;47.422;9.656;2023-03-16T04:55:31;0.80;99.90
4366;DHT22;2196;47.422;9.656;2023-03-16T04:57:58;0.80;99.90
4366;DHT22;2196;47.422;9.656;2023-03-16T05:00:26;0.80;99.90
4366;DHT22;2196;47.422;9.656;2023-03-16T05:02:54;0.80;99.90
4366;DHT22;2196;47.422;9.656;2023-03-16T05:05:21;0.70;99.90
4366;DHT22;2196;47.422;9.656;2023-03-16T05:07:48;0.70;99.90
4366;DHT22;2196;47.422;9.656;2023-03-16T05:10:17;0.60;99.90
4366;DHT22;2196;47.422;9.656;2023-03-16T05:12:45;0.60;99.90
4366;DHT22;2196;47.422;9.656;2023-03-16T05:15:12;0.60;99.90
4366;DHT22;2196;47.422;9.656;2023-03-16T05:17:39;0.60;99.90
4366;DHT22;2196;47.422;9.656;2023-03-16T05:20:10;0.60;99.90
4366;DHT22;2196;47.422;9.656;2023-03-16T05:22:39;0.60;99.90
4366;DHT22;2196;47.422;9.656;2023-03-16T05:25:07;0.70;99.90
4366;DHT22;2196;47.422;9.656;2023-03-16T05:27:34;0.70;99.90
4366;DHT22;2196;47.422;9.656;2023-03-16T05:30:01;0.70;99.90
4366;DHT22;2196;47.422;9.656;2023-03-16T05:32:28;0.70;99.90
4366;DHT22;2196;47.422;9.656;2023-03-16T05:34:55;0.80;99.90
4366;DHT22;2196;47.422;9.656;2023-03-16T05:37:24;0.80;99.90
4366;DHT22;2196;47.422;9.656;2023-03-16T05:39:51;0.80;99.90
4366;DHT22;2196;47.422;9.656;2023-03-16T05:42:18;0.80;99.90
4366;DHT22;2196;47.422;9.656;2023-03-16T05:44:45;0.90;99.90
4366;DHT22;2196;47.422;9.656;2023-03-16T05:47:12;0.90;99.90
4366;DHT22;2196;47.422;9.656;2023-03-16T05:49:39;0.90;99.90
4366;DHT22;2196;47.422;9.656;2023-03-16T05:52:06;0.90;99.90
4366;DHT22;2196;47.422;9.656;2023-03-16T05:54:34;0.90;99.90
4366;DHT22;2196;47.422;9.656;2023-03-16T05:57:02;0.90;99.90
4366;DHT22;2196;47.422;9.656;2023-03-16T05:59:31;1.00;99.90
4366;DHT22;2196;47.422;9.656;2023-03-16T06:01:58;1.10;99.90
4366;DHT22;2196;47.422;9.656;2023-03-16T06:04:25;1.00;99.90
4366;DHT22;2196;47.422;9.656;2023-03-16T06:06:52;1.10;99.90
4366;DHT22;2196;47.422;9.656;2023-03-16T06:09:19;1.30;99.90
4366;DHT22;2196;47.422;9.656;2023-03-16T06:11:47;1.30;99.90
4366;DHT22;2196;47.422;9.656;2023-03-16T06:14:14;1.40;99.90
4366;DHT22;2196;47.422;9.656;2023-03-16T06:16:41;1.40;99.90
4366;DHT22;2196;47.422;9.656;2023-03-16T06:19:08;1.50;99.90
4366;DHT22;2196;47.422;9.656;2023-03-16T06:21:35;1.60;99.90
4366;DHT22;2196;47.422;9.656;2023-03-16T06:24:02;1.60;99.90
4366;DHT22;2196;47.422;9.656;2023-03-16T06:26:29;1.50;99.90
4366;DHT22;2196;47.422;9.656;2023-03-16T06:28:57;1.70;99.90
4366;DHT22;2196;47.422;9.656;2023-03-16T06:31:24;2.60;99.90
4366;DHT22;2196;47.422;9.656;2023-03-16T06:33:51;3.90;99.90
4366;DHT22;2196;47.422;9.656;2023-03-16T06:36:19;5.10;99.90
4366;DHT22;2196;47.422;9.656;2023-03-16T06:38:46;6.30;99.90
4366;DHT22;2196;47.422;9.656;2023-03-16T06:41:13;6.90;99.90
4366;DHT22;2196;47.422;9.656;2023-03-16T06:43:40;7.00;99.90
4366;DHT22;2196;47.422;9.656;2023-03-16T06:46:09;7.60;99.90
4366;DHT22;2196;47.422;9.656;2023-03-16T06:48:54;7.50;99.90
4366;DHT22;2196;47.422;9.656;2023-03-16T06:51:21;7.60;99.90
4366;DHT22;2196;47.422;9.656;2023-03-16T06:53:48;7.50;99.90
4366;DHT22;2196;47.422;9.656;2023-03-16T06:56:15;7.70;99.90
4366;DHT22;2196;47.422;9.656;2023-03-16T06:58:42;7.80;99.90
4366;DHT22;2196;47.422;9.656;2023-03-16T07:01:10;7.90;99.90
4366;DHT22;2196;47.422;9.656;2023-03-16T07:03:38;7.90;99.90
4366;DHT22;2196;47.422;9.656;2023-03-16T07:06:06;7.90;99.90
4366;DHT22;2196;47.422;9.656;2023-03-16T07:08:34;7.90;99.90
4366;DHT22;2196;47.422;9.656;2023-03-16T07:11:01;7.60;99.90
4366;DHT22;2196;47.422;9.656;2023-03-16T07:13:29;7.30;99.90
4366;DHT22;2196;47.422;9.656;2023-03-16T07:15:56;6.90;99.90
4366;DHT22;2196;47.422;9.656;2023-03-16T07:18:24;6.80;99.90
4366;DHT22;2196;47.422;9.656;2023-03-16T07:20:52;6.90;99.90
4366;DHT22;2196;47.422;9.656;2023-03-16T07:23:19;7.20;99.90
4366;DHT22;2196;47.422;9.656;2023-03-16T07:25:45;7.60;99.90
4366;DHT22;2196;47.422;9.656;2023-03-16T07:28:12;7.90;99.90
4366;DHT22;2196;47.422;9.656;2023-03-16T07:30:39;7.60;99.90
4366;DHT22;2196;47.422;9.656;2023-03-16T07:33:06;7.60;99.90
4366;DHT22;2196;47.422;9.656;2023-03-16T07:35:35;7.50;99.90
4366;DHT22;2196;47.422;9.656;2023-03-16T07:38:02;7.30;99.90
4366;DHT22;2196;47.422;9.656;2023-03-16T07:40:29;7.30;99.90
4366;DHT22;2196;47.422;9.656;2023-03-16T07:42:56;7.50;99.90
4366;DHT22;2196;47.422;9.656;2023-03-16T07:45:23;7.80;99.90
4366;DHT22;2196;47.422;9.656;2023-03-16T07:47:53;8.10;99.90
4366;DHT22;2196;47.422;9.656;2023-03-16T07:50:20;8.50;99.90
4366;DHT22;2196;47.422;9.656;2023-03-16T07:52:52;8.70;99.90
4366;DHT22;2196;47.422;9.656;2023-03-16T07:55:20;9.10;99.90
4366;DHT22;2196;47.422;9.656;2023-03-16T07:57:47;9.30;99.90
4366;DHT22;2196;47.422;9.656;2023-03-16T08:00:14;9.80;99.90
4366;DHT22;2196;47.422;9.656;2023-03-16T08:02:41;10.30;99.90
4366;DHT22;2196;47.422;9.656;2023-03-16T08:05:09;10.90;99.90
4366;DHT22;2196;47.422;9.656;2023-03-16T08:07:37;11.00;99.90
4366;DHT22;2196;47.422;9.656;2023-03-16T08:10:06;11.10;99.90
4366;DHT22;2196;47.422;9.656;2023-03-16T08:12:34;11.00;99.90
4366;DHT22;2196;47.422;9.656;2023-03-16T08:15:01;10.90;99.90
4366;DHT22;2196;47.422;9.656;2023-03-16T08:17:28;11.10;99.90
4366;DHT22;2196;47.422;9.656;2023-03-16T08:19:54;11.20;99.90
4366;DHT22;2196;47.422;9.656;2023-03-16T08:22:21;11.20;99.40
4366;DHT22;2196;47.422;9.656;2023-03-16T08:24:49;11.60;98.20
4366;DHT22;2196;47.422;9.656;2023-03-16T08:27:17;12.10;98.70
4366;DHT22;2196;47.422;9.656;2023-03-16T08:29:45;12.50;99.00
4366;DHT22;2196;47.422;9.656;2023-03-16T08:32:12;12.60;98.20
4366;DHT22;2196;47.422;9.656;2023-03-16T08:34:39;12.20;98.40
4366;DHT22;2196;47.422;9.656;2023-03-16T08:37:06;12.50;97.70
4366;DHT22;2196;47.422;9.656;2023-03-16T08:39:34;13.30;97.70
4366;DHT22;2196;47.422;9.656;2023-03-16T08:42:01;13.80;96.10
4366;DHT22;2196;47.422;9.656;2023-03-16T08:44:30;13.80;95.50
4366;DHT22;2196;47.422;9.656;2023-03-16T08:46:57;14.40;96.00
4366;DHT22;2196;47.422;9.656;2023-03-16T08:49:24;14.50;93.70
4366;DHT22;2196;47.422;9.656;2023-03-16T08:51:51;14.70;93.00
4366;DHT22;2196;47.422;9.656;2023-03-16T08:54:18;15.40;92.30
4366;DHT22;2196;47.422;9.656;2023-03-16T08:56:46;15.40;91.30
4366;DHT22;2196;47.422;9.656;2023-03-16T08:59:13;15.50;91.00
4366;DHT22;2196;47.422;9.656;2023-03-16T09:01:43;16.10;88.60
4366;DHT22;2196;47.422;9.656;2023-03-16T09:04:10;16.20;90.20
4366;DHT22;2196;47.422;9.656;2023-03-16T09:06:37;16.80;88.10
4366;DHT22;2196;47.422;9.656;2023-03-16T09:09:04;16.50;82.10
4366;DHT22;2196;47.422;9.656;2023-03-16T09:11:31;16.50;82.20
4366;DHT22;2196;47.422;9.656;2023-03-16T09:13:59;15.80;82.20
4366;DHT22;2196;47.422;9.656;2023-03-16T09:16:26;15.40;86.30
4366;DHT22;2196;47.422;9.656;2023-03-16T09:18:56;15.80;80.60
4366;DHT22;2196;47.422;9.656;2023-03-16T09:21:23;15.80;79.70
4366;DHT22;2196;47.422;9.656;2023-03-16T09:23:51;16.10;84.10
4366;DHT22;2196;47.422;9.656;2023-03-16T09:26:19;16.10;82.70
4366;DHT22;2196;47.422;9.656;2023-03-16T09:28:46;16.00;80.00
4366;DHT22;2196;47.422;9.656;2023-03-16T09:31:16;15.60;78.80
4366;DHT22;2196;47.422;9.656;2023-03-16T09:33:43;14.60;76.50
4366;DHT22;2196;47.422;9.656;2023-03-16T09:36:12;14.50;80.20
4366;DHT22;2196;47.422;9.656;2023-03-16T09:38:40;14.70;76.60
4366;DHT22;2196;47.422;9.656;2023-03-16T09:41:14;15.00;78.60
4366;DHT22;2196;47.422;9.656;2023-03-16T09:43:54;15.40;83.00
4366;DHT22;2196;47.422;9.656;2023-03-16T09:46:25;15.30;79.60
4366;DHT22;2196;47.422;9.656;2023-03-16T09:48:54;15.00;75.70
4366;DHT22;2196;47.422;9.656;2023-03-16T09:51:34;14.90;81.50
4366;DHT22;2196;47.422;9.656;2023-03-16T09:54:09;14.70;78.90
4366;DHT22;2196;47.422;9.656;2023-03-16T09:56:41;14.40;77.90
4366;DHT22;2196;47.422;9.656;2023-03-16T09:59:10;14.70;81.20
4366;DHT22;2196;47.422;9.656;2023-03-16T10:01:45;14.60;79.40
4366;DHT22;2196;47.422;9.656;2023-03-16T10:04:27;14.90;79.00
4366;DHT22;2196;47.422;9.656;2023-03-16T10:07:08;15.40;76.70
4366;DHT22;2196;47.422;9.656;2023-03-16T10:09:43;15.60;75.90
4366;DHT22;2196;47.422;9.656;2023-03-16T10:12:13;16.00;78.10
4366;DHT22;2196;47.422;9.656;2023-03-16T10:14:45;16.30;78.30
4366;DHT22;2196;47.422;9.656;2023-03-16T10:17:17;16.60;79.60
4366;DHT22;2196;47.422;9.656;2023-03-16T10:19:48;17.00;76.90
4366;DHT22;2196;47.422;9.656;2023-03-16T10:22:20;17.00;73.50
4366;DHT22;2196;47.422;9.656;2023-03-16T10:24:56;17.00;70.20
4366;DHT22;2196;47.422;9.656;2023-03-16T10:27:27;17.00;71.30
4366;DHT22;2196;47.422;9.656;2023-03-16T10:29:55;16.90;77.30
4366;DHT22;2196;47.422;9.656;2023-03-16T10:32:22;16.70;71.80
4366;DHT22;2196;47.422;9.656;2023-03-16T10:34:57;16.40;72.00
4366;DHT22;2196;47.422;9.656;2023-03-16T10:37:29;16.60;77.70
4366;DHT22;2196;47.422;9.656;2023-03-16T10:39:57;16.30;74.50
4366;DHT22;2196;47.422;9.656;2023-03-16T10:42:26;16.50;79.90
4366;DHT22;2196;47.422;9.656;2023-03-16T10:44:56;16.70;73.20
4366;DHT22;2196;47.422;9.656;2023-03-16T10:47:27;16.50;71.50
4366;DHT22;2196;47.422;9.656;2023-03-16T10:49:54;17.10;69.70
4366;DHT22;2196;47.422;9.656;2023-03-16T10:52:26;16.50;69.30
4366;DHT22;2196;47.422;9.656;2023-03-16T10:54:57;16.00;73.90
4366;DHT22;2196;47.422;9.656;2023-03-16T10:57:26;16.00;68.60
4366;DHT22;2196;47.422;9.656;2023-03-16T10:59:59;15.80;73.30
4366;DHT22;2196;47.422;9.656;2023-03-16T11:02:33;15.70;74.20
4366;DHT22;2196;47.422;9.656;2023-03-16T11:05:11;15.30;69.30
4366;DHT22;2196;47.422;9.656;2023-03-16T11:07:38;15.00;76.80
4366;DHT22;2196;47.422;9.656;2023-03-16T11:10:24;15.00;68.50
4366;DHT22;2196;47.422;9.656;2023-03-16T11:12:54;14.90;68.70
4366;DHT22;2196;47.422;9.656;2023-03-16T11:15:21;15.00;76.00
4366;DHT22;2196;47.422;9.656;2023-03-16T11:17:52;14.80;75.30
4366;DHT22;2196;47.422;9.656;2023-03-16T11:20:22;14.50;77.10
4366;DHT22;2196;47.422;9.656;2023-03-16T11:22:53;14.50;71.90
4366;DHT22;2196;47.422;9.656;2023-03-16T11:25:27;14.50;70.90
4366;DHT22;2196;47.422;9.656;2023-03-16T11:28:03;14.10;75.00
4366;DHT22;2196;47.422;9.656;2023-03-16T11:30:37;14.10;70.80
4366;DHT22;2196;47.422;9.656;2023-03-16T11:33:09;14.10;69.90
4366;DHT22;2196;47.422;9.656;2023-03-16T11:35:44;14.10;69.90
4366;DHT22;2196;47.422;9.656;2023-03-16T11:38:15;13.80;73.20
4366;DHT22;2196;47.422;9.656;2023-03-16T11:40:52;13.70;72.70
4366;DHT22;2196;47.422;9.656;2023-03-16T11:46:22;13.60;70.70
4366;DHT22;2196;47.422;9.656;2023-03-16T11:48:59;13.60;68.90
4366;DHT22;2196;47.422;9.656;2023-03-16T11:51:34;13.60;68.70
4366;DHT22;2196;47.422;9.656;2023-03-16T11:54:28;13.40;70.90
4366;DHT22;2196;47.422;9.656;2023-03-16T11:57:03;13.40;72.60
4366;DHT22;2196;47.422;9.656;2023-03-16T11:59:52;13.40;69.10
4366;DHT22;2196;47.422;9.656;2023-03-16T12:05:43;13.20;72.40
4366;DHT22;2196;47.422;9.656;2023-03-16T12:08:36;13.50;72.60
4366;DHT22;2196;47.422;9.656;2023-03-16T12:11:12;13.50;85.30
4366;DHT22;2196;47.422;9.656;2023-03-16T12:13:56;13.40;86.90
4366;DHT22;2196;47.422;9.656;2023-03-16T12:16:27;13.20;90.20
4366;DHT22;2196;47.422;9.656;2023-03-16T12:18:58;12.50;91.90
4366;DHT22;2196;47.422;9.656;2023-03-16T12:21:30;12.50;94.20
4366;DHT22;2196;47.422;9.656;2023-03-16T12:24:01;12.30;93.50
4366;DHT22;2196;47.422;9.656;2023-03-16T12:26:32;12.30;94.50
4366;DHT22;2196;47.422;9.656;2023-03-16T12:29:06;12.40;93.00
4366;DHT22;2196;47.422;9.656;2023-03-16T12:31:40;12.60;91.40
4366;DHT22;2196;47.422;9.656;2023-03-16T12:34:18;12.80;91.90
4366;DHT22;2196;47.422;9.656;2023-03-16T12:37:05;12.80;93.80
4366;DHT22;2196;47.422;9.656;2023-03-16T12:39:53;12.80;92.20
4366;DHT22;2196;47.422;9.656;2023-03-16T12:42:30;12.90;90.60
4366;DHT22;2196;47.422;9.656;2023-03-16T12:45:04;13.00;92.20
4366;DHT22;2196;47.422;9.656;2023-03-16T12:47:41;13.00;93.30
4366;DHT22;2196;47.422;9.656;2023-03-16T12:50:13;12.90;92.50
4366;DHT22;2196;47.422;9.656;2023-03-16T12:52:41;12.80;92.20
4366;DHT22;2196;47.422;9.656;2023-03-16T12:55:13;12.80;93.30
4366;DHT22;2196;47.422;9.656;2023-03-16T12:57:41;12.70;91.30
4366;DHT22;2196;47.422;9.656;2023-03-16T13:00:12;12.60;89.10
4366;DHT22;2196;47.422;9.656;2023-03-16T13:02:43;12.80;91.60
4366;DHT22;2196;47.422;9.656;2023-03-16T13:05:13;12.80;91.80
4366;DHT22;2196;47.422;9.656;2023-03-16T13:07:49;12.80;90.70
4366;DHT22;2196;47.422;9.656;2023-03-16T13:10:18;12.90;90.50
4366;DHT22;2196;47.422;9.656;2023-03-16T13:12:47;13.00;91.80
4366;DHT22;2196;47.422;9.656;2023-03-16T13:15:28;13.00;91.00
4366;DHT22;2196;47.422;9.656;2023-03-16T13:18:05;13.20;87.40
4366;DHT22;2196;47.422;9.656;2023-03-16T13:20:51;13.30;90.20
4366;DHT22;2196;47.422;9.656;2023-03-16T13:23:22;13.10;87.20
4366;DHT22;2196;47.422;9.656;2023-03-16T13:26:03;13.10;90.80
4366;DHT22;2196;47.422;9.656;2023-03-16T13:28:34;13.30;91.90
4366;DHT22;2196;47.422;9.656;2023-03-16T13:31:04;13.40;91.30
4366;DHT22;2196;47.422;9.656;2023-03-16T13:33:33;13.40;90.10
4366;DHT22;2196;47.422;9.656;2023-03-16T13:36:02;13.50;90.10
4366;DHT22;2196;47.422;9.656;2023-03-16T13:38:30;13.40;90.20
4366;DHT22;2196;47.422;9.656;2023-03-16T13:41:02;13.40;85.60
4366;DHT22;2196;47.422;9.656;2023-03-16T13:43:31;13.50;90.00
4366;DHT22;2196;47.422;9.656;2023-03-16T13:46:00;13.40;84.30
4366;DHT22;2196;47.422;9.656;2023-03-16T13:48:36;13.40;89.80
4366;DHT22;2196;47.422;9.656;2023-03-16T13:51:12;13.40;89.70
4366;DHT22;2196;47.422;9.656;2023-03-16T13:53:40;13.30;90.00
4366;DHT22;2196;47.422;9.656;2023-03-16T13:56:12;13.40;89.80
4366;DHT22;2196;47.422;9.656;2023-03-16T13:58:43;13.50;86.90
4366;DHT22;2196;47.422;9.656;2023-03-16T14:01:17;13.50;89.30
4366;DHT22;2196;47.422;9.656;2023-03-16T14:03:49;13.60;89.80
4366;DHT22;2196;47.422;9.656;2023-03-16T14:06:21;13.70;87.70
4366;DHT22;2196;47.422;9.656;2023-03-16T14:08:51;13.60;86.60
4366;DHT22;2196;47.422;9.656;2023-03-16T14:11:19;13.30;88.00
4366;DHT22;2196;47.422;9.656;2023-03-16T14:13:50;13.30;90.40
4366;DHT22;2196;47.422;9.656;2023-03-16T14:16:20;13.30;90.30
4366;DHT22;2196;47.422;9.656;2023-03-16T14:18:55;13.40;89.40
4366;DHT22;2196;47.422;9.656;2023-03-16T14:21:25;13.30;86.80
4366;DHT22;2196;47.422;9.656;2023-03-16T14:23:55;13.30;88.20
4366;DHT22;2196;47.422;9.656;2023-03-16T14:26:23;13.10;86.40
4366;DHT22;2196;47.422;9.656;2023-03-16T14:28:56;13.10;88.80
4366;DHT22;2196;47.422;9.656;2023-03-16T14:31:31;13.20;89.40
4366;DHT22;2196;47.422;9.656;2023-03-16T14:34:02;13.30;86.90
4366;DHT22;2196;47.422;9.656;2023-03-16T14:36:35;13.30;89.30
4366;DHT22;2196;47.422;9.656;2023-03-16T14:39:12;13.20;87.80
4366;DHT22;2196;47.422;9.656;2023-03-16T14:41:39;13.20;87.50
4366;DHT22;2196;47.422;9.656;2023-03-16T14:44:19;13.20;84.80
4366;DHT22;2196;47.422;9.656;2023-03-16T14:46:47;13.20;90.00
4366;DHT22;2196;47.422;9.656;2023-03-16T14:49:21;13.20;90.30
4366;DHT22;2196;47.422;9.656;2023-03-16T14:51:51;13.20;89.40
4366;DHT22;2196;47.422;9.656;2023-03-16T14:54:20;13.20;90.00
4366;DHT22;2196;47.422;9.656;2023-03-16T14:56:49;13.20;89.60
4366;DHT22;2196;47.422;9.656;2023-03-16T14:59:17;13.20;89.10
4366;DHT22;2196;47.422;9.656;2023-03-16T15:01:45;13.20;89.10
4366;DHT22;2196;47.422;9.656;2023-03-16T15:04:14;13.10;90.00
4366;DHT22;2196;47.422;9.656;2023-03-16T15:06:43;13.00;90.10
4366;DHT22;2196;47.422;9.656;2023-03-16T15:09:26;13.10;90.60
4366;DHT22;2196;47.422;9.656;2023-03-16T15:11:54;13.20;90.10
4366;DHT22;2196;47.422;9.656;2023-03-16T15:14:22;13.20;90.40
4366;DHT22;2196;47.422;9.656;2023-03-16T15:17:03;13.20;89.80
4366;DHT22;2196;47.422;9.656;2023-03-16T15:19:30;13.20;90.00
4366;DHT22;2196;47.422;9.656;2023-03-16T15:21:59;13.20;90.20
4366;DHT22;2196;47.422;9.656;2023-03-16T15:24:27;13.20;90.30
4366;DHT22;2196;47.422;9.656;2023-03-16T15:26:55;13.30;89.80
4366;DHT22;2196;47.422;9.656;2023-03-16T15:29:22;13.20;90.50
4366;DHT22;2196;47.422;9.656;2023-03-16T15:31:49;13.30;90.40
4366;DHT22;2196;47.422;9.656;2023-03-16T15:34:16;13.20;90.60
4366;DHT22;2196;47.422;9.656;2023-03-16T15:36:43;13.10;88.90
4366;DHT22;2196;47.422;9.656;2023-03-16T15:39:19;13.10;90.10
4366;DHT22;2196;47.422;9.656;2023-03-16T15:41:47;13.00;90.20
4366;DHT22;2196;47.422;9.656;2023-03-16T15:44:14;13.00;90.00
4366;DHT22;2196;47.422;9.656;2023-03-16T15:46:41;13.00;90.10
4366;DHT22;2196;47.422;9.656;2023-03-16T15:49:08;13.00;86.30
4366;DHT22;2196;47.422;9.656;2023-03-16T15:51:35;13.00;86.70
4366;DHT22;2196;47.422;9.656;2023-03-16T15:54:03;12.80;87.40
4366;DHT22;2196;47.422;9.656;2023-03-16T15:56:34;12.80;86.60
4366;DHT22;2196;47.422;9.656;2023-03-16T15:59:05;12.80;87.20
4366;DHT22;2196;47.422;9.656;2023-03-16T16:01:38;12.80;88.90
4366;DHT22;2196;47.422;9.656;2023-03-16T16:04:12;12.70;89.50
4366;DHT22;2196;47.422;9.656;2023-03-16T16:06:40;12.60;90.00
4366;DHT22;2196;47.422;9.656;2023-03-16T16:09:08;12.40;89.60
4366;DHT22;2196;47.422;9.656;2023-03-16T16:11:37;12.40;88.60
4366;DHT22;2196;47.422;9.656;2023-03-16T16:14:07;12.40;89.70
4366;DHT22;2196;47.422;9.656;2023-03-16T16:16:37;12.30;89.60
4366;DHT22;2196;47.422;9.656;2023-03-16T16:19:05;12.30;89.80
4366;DHT22;2196;47.422;9.656;2023-03-16T16:21:35;12.20;89.40
4366;DHT22;2196;47.422;9.656;2023-03-16T16:24:02;12.20;90.20
4366;DHT22;2196;47.422;9.656;2023-03-16T16:26:33;12.20;90.70
4366;DHT22;2196;47.422;9.656;2023-03-16T16:29:07;12.20;90.70
4366;DHT22;2196;47.422;9.656;2023-03-16T16:31:37;12.30;90.80
4366;DHT22;2196;47.422;9.656;2023-03-16T16:34:04;12.30;91.20